createdAt,value
2019-03-27T00:04:50.249Z,4.45
2019-03-27T00:09:54.306Z,4.65
2019-03-27T00:15:11.581Z,5.45
2019-03-27T00:20:08.314Z,5.28
2019-03-27T00:25:11.717Z,5.60
2019-03-27T00:30:15.208Z,4.72
2019-03-27T00:35:19.015Z,5.00
2019-03-27T00:40:24.098Z,4.55
2019-03-27T00:45:27.472Z,4.78
2019-03-27T00:50:30.868Z,4.90
2019-03-27T00:55:34.220Z,7.85
2019-03-27T01:00:47.689Z,9.85
2019-03-27T01:05:51.212Z,5.42
2019-03-27T01:10:56.210Z,5.15
2019-03-27T01:15:59.876Z,5.75
2019-03-27T01:21:04.968Z,5.17
2019-03-27T01:26:08.380Z,5.62
2019-03-27T01:31:11.784Z,5.33
2019-03-27T01:36:16.807Z,4.80
2019-03-27T01:41:21.663Z,5.00
2019-03-27T01:46:25.500Z,4.80
2019-03-27T01:51:28.857Z,4.60
2019-03-27T01:56:34.005Z,5.05
2019-03-27T02:01:37.974Z,4.67
2019-03-27T02:06:41.367Z,5.53
2019-03-27T02:11:44.697Z,5.03
2019-03-27T02:28:15.756Z,5.45
2019-03-27T02:33:21.041Z,5.25
2019-03-27T02:38:24.400Z,5.70
2019-03-27T02:43:27.836Z,6.60
2019-03-27T02:48:31.911Z,6.35
2019-03-27T02:53:36.586Z,7.10
2019-03-27T02:58:40.306Z,6.53
2019-03-27T03:03:44.410Z,7.58
2019-03-27T03:08:48.647Z,7.28
2019-03-27T03:13:53.071Z,7.58
2019-03-27T03:18:57.250Z,7.33
2019-03-27T03:24:00.567Z,7.53
2019-03-27T03:29:04.000Z,7.42
2019-03-27T03:34:10.884Z,7.28
2019-03-27T03:39:14.247Z,7.50
2019-03-27T03:44:18.650Z,7.80
2019-03-27T03:49:21.992Z,7.15
2019-03-27T03:54:26.100Z,8.35
2019-03-27T03:59:29.437Z,8.08
2019-03-27T04:04:33.124Z,8.55
2019-03-27T04:09:37.681Z,9.05
2019-03-27T04:14:41.199Z,8.70
2019-03-27T04:19:44.598Z,9.03
2019-03-27T04:24:49.721Z,9.78
2019-03-27T04:29:53.634Z,9.55
2019-03-27T04:34:57.350Z,9.30
2019-03-27T04:40:00.772Z,9.68
2019-03-27T04:45:06.503Z,10.15
2019-03-27T04:50:09.900Z,11.40
2019-03-27T04:55:13.288Z,11.00
2019-03-27T05:00:18.717Z,11.18
2019-03-27T05:05:22.428Z,11.70
2019-03-27T05:10:26.941Z,11.83
2019-03-27T05:15:32.960Z,12.07
2019-03-27T05:20:36.375Z,11.75
2019-03-27T05:25:40.042Z,10.68
2019-03-27T05:30:43.439Z,11.78
2019-03-27T05:35:48.397Z,11.08
2019-03-27T05:40:51.719Z,10.95
2019-03-27T05:45:55.037Z,11.28
2019-03-27T05:50:58.337Z,10.35
2019-03-27T05:56:02.181Z,10.63
2019-03-27T06:01:05.583Z,10.72
2019-03-27T06:06:09.258Z,10.30
2019-03-27T06:11:12.574Z,10.18
2019-03-27T06:16:16.339Z,9.25
2019-03-27T06:21:19.719Z,9.18
2019-03-27T06:26:31.829Z,7.78
2019-03-27T06:31:35.364Z,9.13
2019-03-27T06:36:40.005Z,8.73
2019-03-27T06:41:43.417Z,8.38
2019-03-27T06:46:50.501Z,7.87
2019-03-27T06:51:53.817Z,9.43
2019-03-27T06:57:01.017Z,9.98
2019-03-27T07:02:06.333Z,8.05
2019-03-27T07:07:11.462Z,7.62
2019-03-27T07:12:20.955Z,7.53
2019-03-27T07:17:20.662Z,7.65
2019-03-27T07:22:24.086Z,6.03
2019-03-27T07:27:30.174Z,6.65
2019-03-27T07:32:35.008Z,6.35
2019-03-27T07:37:45.474Z,6.28
2019-03-27T07:42:49.195Z,6.10
2019-03-27T07:47:54.297Z,8.05
2019-03-27T07:52:58.676Z,5.97
2019-03-27T07:58:03.510Z,6.35
2019-03-27T08:03:07.291Z,5.45
2019-03-27T08:08:11.728Z,4.92
2019-03-27T08:13:15.652Z,4.95
2019-03-27T08:18:19.897Z,5.53
2019-03-27T08:23:26.934Z,4.97
2019-03-27T08:28:30.801Z,4.95
2019-03-27T08:33:34.114Z,3.92
2019-03-27T08:38:39.278Z,4.87
2019-03-27T08:43:44.334Z,5.35
2019-03-27T08:48:48.598Z,4.75
2019-03-27T08:53:58.720Z,5.00
2019-03-27T08:59:07.290Z,4.80
2019-03-27T09:04:10.679Z,4.90
2019-03-27T09:09:14.285Z,3.65
2019-03-27T09:14:18.330Z,4.17
2019-03-27T09:19:34.510Z,3.70
2019-03-27T09:24:30.394Z,4.12
2019-03-27T09:29:34.727Z,4.28
2019-03-27T09:34:38.040Z,4.33
2019-03-27T09:39:44.101Z,4.80
2019-03-27T09:44:49.563Z,4.28
2019-03-27T09:49:52.926Z,3.70
2019-03-27T09:54:57.602Z,4.50
2019-03-27T10:00:02.663Z,3.37
2019-03-27T10:05:09.336Z,4.00
2019-03-27T10:10:12.647Z,4.87
2019-03-27T10:15:18.127Z,4.60
2019-03-27T10:20:21.440Z,3.42
2019-03-27T10:25:26.680Z,4.53
2019-03-27T10:30:30.843Z,3.05
2019-03-27T10:35:34.345Z,3.30
2019-03-27T10:40:38.947Z,3.45
2019-03-27T10:45:42.288Z,2.37
2019-03-27T10:50:46.794Z,2.50
2019-03-27T10:55:50.137Z,3.00
2019-03-27T11:00:53.676Z,2.47
2019-03-27T11:05:57.144Z,2.55
2019-03-27T11:11:00.609Z,3.60
2019-03-27T11:16:04.612Z,3.55
2019-03-27T11:21:07.981Z,2.60
2019-03-27T11:26:14.009Z,2.52
2019-03-27T11:31:21.634Z,2.80
2019-03-27T11:36:27.484Z,3.20
2019-03-27T11:41:34.499Z,2.95
2019-03-27T11:46:41.304Z,2.80
2019-03-27T11:51:45.673Z,3.50
2019-03-27T11:56:54.715Z,10.90
2019-03-27T12:02:00.039Z,8.95
2019-03-27T12:07:07.279Z,13.65
2019-03-27T12:12:13.739Z,15.68
2019-03-27T12:17:20.252Z,8.00
2019-03-27T12:22:28.124Z,2.95
2019-03-27T12:27:31.996Z,1.65
2019-03-27T12:32:36.235Z,1.82
2019-03-27T12:37:39.693Z,1.82
2019-03-27T12:42:43.667Z,1.75
2019-03-27T12:47:49.114Z,2.70
2019-03-27T12:52:54.262Z,1.90
2019-03-27T12:58:01.814Z,2.00
2019-03-27T13:03:07.672Z,2.12
2019-03-27T13:13:20.720Z,2.33
2019-03-27T13:18:26.305Z,1.90
2019-03-27T13:28:48.110Z,2.12
2019-03-27T13:33:43.114Z,2.40
2019-03-27T13:38:46.553Z,3.22
2019-03-27T13:43:58.848Z,2.50
2019-03-27T13:49:05.134Z,2.40
2019-03-27T13:54:14.156Z,2.22
2019-03-27T13:59:19.520Z,2.60
2019-03-27T14:04:23.568Z,2.72
2019-03-27T14:09:35.202Z,3.05
2019-03-27T14:14:49.603Z,3.30
2019-03-27T14:19:44.631Z,2.92
2019-03-27T14:24:54.374Z,2.60
2019-03-27T14:29:58.900Z,2.80
2019-03-27T14:35:03.354Z,3.10
2019-03-27T14:40:14.743Z,3.65
2019-03-27T14:45:17.865Z,3.22
2019-03-27T14:50:25.019Z,3.40
2019-03-27T14:55:32.895Z,3.45
2019-03-27T15:00:44.256Z,3.85
2019-03-27T15:16:25.782Z,3.83
2019-03-27T15:21:30.548Z,3.95
2019-03-27T15:26:34.589Z,4.55
2019-03-27T15:31:40.039Z,4.80
2019-03-27T15:36:47.869Z,5.75
2019-03-27T15:47:26.506Z,4.80
2019-03-27T15:52:41.073Z,4.50
2019-03-27T15:57:43.006Z,4.33
2019-03-27T16:02:47.875Z,5.15
2019-03-27T16:07:57.488Z,5.80
2019-03-27T16:13:05.127Z,4.97
2019-03-27T16:18:12.561Z,6.62
2019-03-27T16:23:19.931Z,15.63
2019-03-27T16:28:26.993Z,8.05
2019-03-27T16:33:32.920Z,6.67
2019-03-27T16:38:38.406Z,5.92
2019-03-27T16:43:45.298Z,7.05
2019-03-27T16:48:51.835Z,8.03
2019-03-27T16:53:55.163Z,8.00
2019-03-27T16:58:58.842Z,7.65
2019-03-27T17:04:03.143Z,8.48
2019-03-27T17:09:08.750Z,9.28
2019-03-27T17:14:12.128Z,9.35
2019-03-27T17:19:15.646Z,8.58
2019-03-27T17:24:19.846Z,7.87
2019-03-27T17:29:23.779Z,9.65
2019-03-27T17:34:27.285Z,9.68
2019-03-27T17:39:32.268Z,10.98
2019-03-27T17:44:37.381Z,10.28
2019-03-27T17:49:41.065Z,9.73
2019-03-27T17:54:45.596Z,10.78
2019-03-27T17:59:49.278Z,11.08
2019-03-27T18:04:52.724Z,9.93
2019-03-27T18:09:58.526Z,12.05
2019-03-27T18:15:05.865Z,13.22
2019-03-27T18:20:09.568Z,14.73
2019-03-27T18:25:14.511Z,13.58
2019-03-27T18:30:21.448Z,14.83
2019-03-27T18:35:28.718Z,16.02
2019-03-27T18:40:54.577Z,17.57
2019-03-27T18:46:01.296Z,17.73
2019-03-27T18:51:07.525Z,17.67
2019-03-27T18:56:12.378Z,15.50
2019-03-27T19:01:17.689Z,17.65
2019-03-27T19:11:58.235Z,15.03
2019-03-27T19:17:02.386Z,14.00
2019-03-27T19:22:08.879Z,13.32
2019-03-27T19:27:25.892Z,12.23
2019-03-27T19:32:37.665Z,14.00
2019-03-27T19:37:41.023Z,15.30
2019-03-27T19:42:45.220Z,16.52
2019-03-27T19:47:51.633Z,15.05
2019-03-27T19:52:58.189Z,15.40
2019-03-27T19:58:02.473Z,16.05
2019-03-27T20:03:08.521Z,15.10
2019-03-27T20:08:11.899Z,13.45
2019-03-27T20:13:15.359Z,12.75
2019-03-27T20:18:22.043Z,12.33
2019-03-27T20:23:25.552Z,13.30
2019-03-27T20:28:31.922Z,14.10
2019-03-27T20:33:38.068Z,13.78
2019-03-27T20:38:41.433Z,13.05
2019-03-27T20:43:46.116Z,13.68
2019-03-27T20:48:58.956Z,14.93
2019-03-27T20:54:02.605Z,14.53
2019-03-27T20:59:08.253Z,14.93
2019-03-27T21:04:13.109Z,17.37
2019-03-27T21:09:19.561Z,18.70
2019-03-27T21:14:23.041Z,18.23
2019-03-27T21:19:29.621Z,17.27
2019-03-27T21:24:39.185Z,17.50
2019-03-27T21:29:42.562Z,18.27
2019-03-27T21:34:54.199Z,17.90
2019-03-27T21:40:17.913Z,19.25
2019-03-27T21:45:23.895Z,18.50
2019-03-27T21:50:31.118Z,20.75
2019-03-27T21:55:43.154Z,20.57
2019-03-27T22:00:59.613Z,18.87
2019-03-27T22:06:00.470Z,17.95
2019-03-27T22:11:04.743Z,20.12
2019-03-27T22:16:10.131Z,21.48
2019-03-27T22:21:15.906Z,20.57
2019-03-27T22:26:21.111Z,20.48
2019-03-27T22:31:36.972Z,19.10
2019-03-27T22:36:42.512Z,20.45
2019-03-27T22:41:49.744Z,19.35
2019-03-27T22:46:54.921Z,18.95
2019-03-27T22:51:59.011Z,18.95
2019-03-27T22:57:04.391Z,19.35
2019-03-27T23:02:10.341Z,17.42
2019-03-27T23:07:22.603Z,17.60
2019-03-27T23:12:36.194Z,19.23
